sensor_id;sensor_type;location;lat;lon;timestamp;P1;durP1;ratioP1;P2;durP2;ratioP2
9972;SDS011;5027;53.560;10.062;2023-03-23T00:01:55;6.03;;;5.43;;
9972;SDS011;5027;53.560;10.062;2023-03-23T00:04:21;7.73;;;5.87;;
9972;SDS011;5027;53.560;10.062;2023-03-23T00:06:47;6.77;;;5.90;;
9972;SDS011;5027;53.560;10.062;2023-03-23T00:09:14;9.57;;;6.13;;
9972;SDS011;5027;53.560;10.062;2023-03-23T00:11:40;7.20;;;5.77;;
9972;SDS011;5027;53.560;10.062;2023-03-23T00:14:07;7.20;;;6.43;;
9972;SDS011;5027;53.560;10.062;2023-03-23T00:16:38;6.30;;;5.70;;
9972;SDS011;5027;53.560;10.062;2023-03-23T00:19:12;10.97;;;6.63;;
9972;SDS011;5027;53.560;10.062;2023-03-23T00:21:39;9.10;;;6.70;;
9972;SDS011;5027;53.560;10.062;2023-03-23T00:24:24;7.77;;;6.67;;
9972;SDS011;5027;53.560;10.062;2023-03-23T00:26:50;12.23;;;6.90;;
9972;SDS011;5027;53.560;10.062;2023-03-23T00:29:19;8.27;;;7.13;;
9972;SDS011;5027;53.560;10.062;2023-03-23T00:31:49;8.80;;;8.00;;
9972;SDS011;5027;53.560;10.062;2023-03-23T00:34:16;9.97;;;8.27;;
9972;SDS011;5027;53.560;10.062;2023-03-23T00:36:45;8.13;;;7.20;;
9972;SDS011;5027;53.560;10.062;2023-03-23T00:39:12;9.67;;;7.53;;
9972;SDS011;5027;53.560;10.062;2023-03-23T00:41:41;10.23;;;7.63;;
9972;SDS011;5027;53.560;10.062;2023-03-23T00:44:07;9.07;;;8.03;;
9972;SDS011;5027;53.560;10.062;2023-03-23T00:46:33;9.03;;;7.80;;
9972;SDS011;5027;53.560;10.062;2023-03-23T00:49:01;8.83;;;8.03;;
9972;SDS011;5027;53.560;10.062;2023-03-23T00:51:27;9.23;;;8.00;;
9972;SDS011;5027;53.560;10.062;2023-03-23T00:53:53;9.00;;;8.20;;
9972;SDS011;5027;53.560;10.062;2023-03-23T00:56:18;8.87;;;7.97;;
9972;SDS011;5027;53.560;10.062;2023-03-23T00:58:44;9.50;;;8.50;;
9972;SDS011;5027;53.560;10.062;2023-03-23T01:01:10;9.00;;;8.10;;
9972;SDS011;5027;53.560;10.062;2023-03-23T01:03:36;9.97;;;9.03;;
9972;SDS011;5027;53.560;10.062;2023-03-23T01:06:05;10.10;;;9.10;;
9972;SDS011;5027;53.560;10.062;2023-03-23T01:08:33;10.73;;;9.63;;
9972;SDS011;5027;53.560;10.062;2023-03-23T01:11:03;10.27;;;9.27;;
9972;SDS011;5027;53.560;10.062;2023-03-23T01:13:30;9.77;;;8.77;;
9972;SDS011;5027;53.560;10.062;2023-03-23T01:15:56;10.37;;;8.60;;
9972;SDS011;5027;53.560;10.062;2023-03-23T01:18:22;10.17;;;9.17;;
9972;SDS011;5027;53.560;10.062;2023-03-23T01:20:47;11.90;;;9.17;;
9972;SDS011;5027;53.560;10.062;2023-03-23T01:23:13;13.60;;;9.33;;
9972;SDS011;5027;53.560;10.062;2023-03-23T01:25:39;11.20;;;9.33;;
9972;SDS011;5027;53.560;10.062;2023-03-23T01:28:04;10.13;;;9.13;;
9972;SDS011;5027;53.560;10.062;2023-03-23T01:30:30;10.60;;;9.50;;
9972;SDS011;5027;53.560;10.062;2023-03-23T01:32:56;11.17;;;10.17;;
9972;SDS011;5027;53.560;10.062;2023-03-23T01:35:22;10.23;;;9.37;;
9972;SDS011;5027;53.560;10.062;2023-03-23T01:37:48;12.47;;;10.17;;
9972;SDS011;5027;53.560;10.062;2023-03-23T01:40:14;10.97;;;9.97;;
9972;SDS011;5027;53.560;10.062;2023-03-23T01:42:42;11.50;;;10.40;;
9972;SDS011;5027;53.560;10.062;2023-03-23T01:45:20;11.73;;;10.40;;
9972;SDS011;5027;53.560;10.062;2023-03-23T01:50:34;13.07;;;10.47;;
9972;SDS011;5027;53.560;10.062;2023-03-23T01:53:04;10.97;;;9.87;;
9972;SDS011;5027;53.560;10.062;2023-03-23T01:55:35;11.20;;;10.10;;
9972;SDS011;5027;53.560;10.062;2023-03-23T01:58:03;12.07;;;10.53;;
9972;SDS011;5027;53.560;10.062;2023-03-23T02:00:30;12.30;;;10.97;;
9972;SDS011;5027;53.560;10.062;2023-03-23T02:02:57;11.83;;;10.60;;
9972;SDS011;5027;53.560;10.062;2023-03-23T02:08:27;11.97;;;10.40;;
9972;SDS011;5027;53.560;10.062;2023-03-23T02:10:54;13.37;;;10.53;;
9972;SDS011;5027;53.560;10.062;2023-03-23T02:13:20;11.60;;;9.60;;
9972;SDS011;5027;53.560;10.062;2023-03-23T02:18:26;11.17;;;9.33;;
9972;SDS011;5027;53.560;10.062;2023-03-23T02:21:07;10.73;;;9.30;;
9972;SDS011;5027;53.560;10.062;2023-03-23T02:23:53;11.00;;;9.30;;
9972;SDS011;5027;53.560;10.062;2023-03-23T02:32:10;9.67;;;8.77;;
9972;SDS011;5027;53.560;10.062;2023-03-23T02:35:02;10.83;;;9.53;;
9972;SDS011;5027;53.560;10.062;2023-03-23T02:37:50;8.77;;;7.93;;
9972;SDS011;5027;53.560;10.062;2023-03-23T02:40:21;9.77;;;8.73;;
9972;SDS011;5027;53.560;10.062;2023-03-23T02:42:52;8.93;;;8.10;;
9972;SDS011;5027;53.560;10.062;2023-03-23T02:45:20;8.90;;;8.00;;
9972;SDS011;5027;53.560;10.062;2023-03-23T02:47:48;8.30;;;7.53;;
9972;SDS011;5027;53.560;10.062;2023-03-23T02:50:17;8.47;;;7.67;;
9972;SDS011;5027;53.560;10.062;2023-03-23T02:52:46;8.47;;;7.63;;
9972;SDS011;5027;53.560;10.062;2023-03-23T02:55:15;7.87;;;7.10;;
9972;SDS011;5027;53.560;10.062;2023-03-23T02:57:42;8.17;;;7.37;;
9972;SDS011;5027;53.560;10.062;2023-03-23T03:00:14;7.70;;;6.90;;
9972;SDS011;5027;53.560;10.062;2023-03-23T03:02:47;7.80;;;6.97;;
9972;SDS011;5027;53.560;10.062;2023-03-23T03:07:56;9.67;;;6.90;;
9972;SDS011;5027;53.560;10.062;2023-03-23T03:10:53;8.67;;;7.27;;
9972;SDS011;5027;53.560;10.062;2023-03-23T03:19:08;8.37;;;7.37;;
9972;SDS011;5027;53.560;10.062;2023-03-23T03:21:33;8.27;;;7.33;;
9972;SDS011;5027;53.560;10.062;2023-03-23T03:24:02;8.07;;;7.30;;
9972;SDS011;5027;53.560;10.062;2023-03-23T03:26:30;8.10;;;7.30;;
9972;SDS011;5027;53.560;10.062;2023-03-23T03:29:15;8.00;;;7.30;;
9972;SDS011;5027;53.560;10.062;2023-03-23T03:31:46;8.93;;;8.03;;
9972;SDS011;5027;53.560;10.062;2023-03-23T03:34:14;9.17;;;8.17;;
9972;SDS011;5027;53.560;10.062;2023-03-23T03:36:46;10.20;;;8.87;;
9972;SDS011;5027;53.560;10.062;2023-03-23T03:39:15;9.23;;;8.23;;
9972;SDS011;5027;53.560;10.062;2023-03-23T03:41:42;9.60;;;8.53;;
9972;SDS011;5027;53.560;10.062;2023-03-23T03:44:08;8.87;;;8.00;;
9972;SDS011;5027;53.560;10.062;2023-03-23T03:46:35;8.60;;;7.73;;
9972;SDS011;5027;53.560;10.062;2023-03-23T03:49:02;10.90;;;8.10;;
9972;SDS011;5027;53.560;10.062;2023-03-23T03:51:33;9.40;;;8.40;;
9972;SDS011;5027;53.560;10.062;2023-03-23T03:54:00;9.87;;;8.70;;
9972;SDS011;5027;53.560;10.062;2023-03-23T03:56:26;10.57;;;8.10;;
9972;SDS011;5027;53.560;10.062;2023-03-23T03:59:06;8.87;;;7.90;;
9972;SDS011;5027;53.560;10.062;2023-03-23T04:01:57;9.47;;;8.53;;
9972;SDS011;5027;53.560;10.062;2023-03-23T04:04:23;9.63;;;8.10;;
9972;SDS011;5027;53.560;10.062;2023-03-23T04:06:49;8.43;;;7.63;;
9972;SDS011;5027;53.560;10.062;2023-03-23T04:09:15;8.90;;;7.53;;
9972;SDS011;5027;53.560;10.062;2023-03-23T04:11:41;9.17;;;7.90;;
9972;SDS011;5027;53.560;10.062;2023-03-23T04:14:29;8.53;;;7.73;;
9972;SDS011;5027;53.560;10.062;2023-03-23T04:16:55;9.63;;;7.60;;
9972;SDS011;5027;53.560;10.062;2023-03-23T04:19:23;8.67;;;7.77;;
9972;SDS011;5027;53.560;10.062;2023-03-23T04:21:49;8.13;;;7.43;;
9972;SDS011;5027;53.560;10.062;2023-03-23T04:24:16;9.00;;;7.87;;
9972;SDS011;5027;53.560;10.062;2023-03-23T04:26:42;9.13;;;7.77;;
9972;SDS011;5027;53.560;10.062;2023-03-23T04:29:18;8.57;;;7.67;;
9972;SDS011;5027;53.560;10.062;2023-03-23T04:32:10;9.50;;;8.07;;
9972;SDS011;5027;53.560;10.062;2023-03-23T04:34:40;7.70;;;7.00;;
9972;SDS011;5027;53.560;10.062;2023-03-23T04:37:06;8.67;;;7.83;;
9972;SDS011;5027;53.560;10.062;2023-03-23T04:39:34;8.47;;;7.67;;
9972;SDS011;5027;53.560;10.062;2023-03-23T04:42:02;8.43;;;7.53;;
9972;SDS011;5027;53.560;10.062;2023-03-23T04:44:47;8.33;;;7.53;;
9972;SDS011;5027;53.560;10.062;2023-03-23T04:47:24;14.80;;;8.57;;
9972;SDS011;5027;53.560;10.062;2023-03-23T04:49:56;8.87;;;7.93;;
9972;SDS011;5027;53.560;10.062;2023-03-23T04:52:33;7.97;;;7.13;;
9972;SDS011;5027;53.560;10.062;2023-03-23T04:55:02;5.87;;;5.20;;
9972;SDS011;5027;53.560;10.062;2023-03-23T04:57:33;7.70;;;6.90;;
9972;SDS011;5027;53.560;10.062;2023-03-23T05:00:18;8.17;;;7.37;;
9972;SDS011;5027;53.560;10.062;2023-03-23T05:02:49;8.60;;;7.30;;
9972;SDS011;5027;53.560;10.062;2023-03-23T05:05:21;7.47;;;6.77;;
9972;SDS011;5027;53.560;10.062;2023-03-23T05:07:51;6.57;;;4.80;;
9972;SDS011;5027;53.560;10.062;2023-03-23T05:10:19;9.57;;;7.17;;
9972;SDS011;5027;53.560;10.062;2023-03-23T05:12:45;7.80;;;7.00;;
9972;SDS011;5027;53.560;10.062;2023-03-23T05:15:12;8.03;;;7.23;;
9972;SDS011;5027;53.560;10.062;2023-03-23T05:17:39;8.77;;;7.10;;
9972;SDS011;5027;53.560;10.062;2023-03-23T05:20:17;9.70;;;6.97;;
9972;SDS011;5027;53.560;10.062;2023-03-23T05:22:47;7.50;;;6.80;;
9972;SDS011;5027;53.560;10.062;2023-03-23T05:25:17;7.83;;;7.17;;
9972;SDS011;5027;53.560;10.062;2023-03-23T05:27:51;6.97;;;6.37;;
9972;SDS011;5027;53.560;10.062;2023-03-23T05:30:47;8.60;;;7.10;;
9972;SDS011;5027;53.560;10.062;2023-03-23T05:33:15;7.47;;;6.70;;
9972;SDS011;5027;53.560;10.062;2023-03-23T05:35:45;7.23;;;6.63;;
9972;SDS011;5027;53.560;10.062;2023-03-23T05:38:14;8.20;;;6.87;;
9972;SDS011;5027;53.560;10.062;2023-03-23T05:40:40;7.27;;;6.60;;
9972;SDS011;5027;53.560;10.062;2023-03-23T05:43:12;8.13;;;6.53;;
9972;SDS011;5027;53.560;10.062;2023-03-23T05:45:46;9.70;;;6.90;;
9972;SDS011;5027;53.560;10.062;2023-03-23T05:48:12;9.53;;;6.53;;
9972;SDS011;5027;53.560;10.062;2023-03-23T05:50:38;10.23;;;6.07;;
9972;SDS011;5027;53.560;10.062;2023-03-23T05:53:04;6.53;;;5.93;;
9972;SDS011;5027;53.560;10.062;2023-03-23T05:55:32;6.80;;;6.10;;
9972;SDS011;5027;53.560;10.062;2023-03-23T05:58:18;6.40;;;5.80;;
9972;SDS011;5027;53.560;10.062;2023-03-23T06:00:45;7.33;;;5.43;;
9972;SDS011;5027;53.560;10.062;2023-03-23T06:03:23;7.57;;;5.60;;
9972;SDS011;5027;53.560;10.062;2023-03-23T06:05:56;6.27;;;5.47;;
9972;SDS011;5027;53.560;10.062;2023-03-23T06:08:31;6.83;;;5.40;;
9972;SDS011;5027;53.560;10.062;2023-03-23T06:10:56;5.77;;;5.27;;
9972;SDS011;5027;53.560;10.062;2023-03-23T06:13:22;9.00;;;5.60;;
9972;SDS011;5027;53.560;10.062;2023-03-23T06:15:54;6.70;;;5.10;;
9972;SDS011;5027;53.560;10.062;2023-03-23T06:18:41;6.80;;;4.70;;
9972;SDS011;5027;53.560;10.062;2023-03-23T06:21:26;5.80;;;5.20;;
9972;SDS011;5027;53.560;10.062;2023-03-23T06:23:57;7.03;;;5.00;;
9972;SDS011;5027;53.560;10.062;2023-03-23T06:26:28;7.40;;;5.33;;
9972;SDS011;5027;53.560;10.062;2023-03-23T06:28:59;6.30;;;5.40;;
9972;SDS011;5027;53.560;10.062;2023-03-23T06:31:27;5.47;;;4.77;;
9972;SDS011;5027;53.560;10.062;2023-03-23T06:33:54;5.60;;;5.10;;
9972;SDS011;5027;53.560;10.062;2023-03-23T06:36:23;6.27;;;4.80;;
9972;SDS011;5027;53.560;10.062;2023-03-23T06:38:57;4.73;;;4.20;;
9972;SDS011;5027;53.560;10.062;2023-03-23T06:41:32;5.77;;;4.43;;
9972;SDS011;5027;53.560;10.062;2023-03-23T06:43:58;8.37;;;4.37;;
9972;SDS011;5027;53.560;10.062;2023-03-23T06:46:28;5.37;;;4.70;;
9972;SDS011;5027;53.560;10.062;2023-03-23T06:48:54;6.50;;;4.83;;
9972;SDS011;5027;53.560;10.062;2023-03-23T06:51:28;5.70;;;4.70;;
9972;SDS011;5027;53.560;10.062;2023-03-23T06:53:55;5.40;;;4.40;;
9972;SDS011;5027;53.560;10.062;2023-03-23T06:56:23;5.20;;;3.97;;
9972;SDS011;5027;53.560;10.062;2023-03-23T06:58:49;4.30;;;3.70;;
9972;SDS011;5027;53.560;10.062;2023-03-23T07:01:16;4.77;;;3.93;;
9972;SDS011;5027;53.560;10.062;2023-03-23T07:03:50;6.63;;;4.40;;
9972;SDS011;5027;53.560;10.062;2023-03-23T07:06:23;5.63;;;4.17;;
9972;SDS011;5027;53.560;10.062;2023-03-23T07:08:55;4.30;;;3.87;;
9972;SDS011;5027;53.560;10.062;2023-03-23T07:11:24;5.50;;;4.23;;
9972;SDS011;5027;53.560;10.062;2023-03-23T07:13:51;6.43;;;3.97;;
9972;SDS011;5027;53.560;10.062;2023-03-23T07:16:17;4.17;;;3.77;;
9972;SDS011;5027;53.560;10.062;2023-03-23T07:18:43;6.57;;;4.17;;
9972;SDS011;5027;53.560;10.062;2023-03-23T07:21:09;6.20;;;4.07;;
9972;SDS011;5027;53.560;10.062;2023-03-23T07:23:35;5.97;;;3.83;;
9972;SDS011;5027;53.560;10.062;2023-03-23T07:26:08;5.43;;;3.90;;
9972;SDS011;5027;53.560;10.062;2023-03-23T07:28:38;5.57;;;3.70;;
9972;SDS011;5027;53.560;10.062;2023-03-23T07:31:25;4.73;;;3.50;;
9972;SDS011;5027;53.560;10.062;2023-03-23T07:33:52;5.83;;;3.73;;
9972;SDS011;5027;53.560;10.062;2023-03-23T07:36:18;5.53;;;2.77;;
9972;SDS011;5027;53.560;10.062;2023-03-23T07:38:44;7.23;;;3.43;;
9972;SDS011;5027;53.560;10.062;2023-03-23T07:41:09;6.07;;;3.60;;
9972;SDS011;5027;53.560;10.062;2023-03-23T07:43:38;4.67;;;3.23;;
9972;SDS011;5027;53.560;10.062;2023-03-23T07:46:19;5.33;;;3.67;;
9972;SDS011;5027;53.560;10.062;2023-03-23T07:48:55;5.20;;;3.60;;
9972;SDS011;5027;53.560;10.062;2023-03-23T07:51:25;3.83;;;3.20;;
9972;SDS011;5027;53.560;10.062;2023-03-23T07:53:53;4.30;;;3.37;;
9972;SDS011;5027;53.560;10.062;2023-03-23T07:56:49;5.03;;;3.90;;
9972;SDS011;5027;53.560;10.062;2023-03-23T07:59:23;3.17;;;2.67;;
9972;SDS011;5027;53.560;10.062;2023-03-23T08:01:49;4.40;;;3.77;;
9972;SDS011;5027;53.560;10.062;2023-03-23T08:04:28;5.23;;;3.97;;
9972;SDS011;5027;53.560;10.062;2023-03-23T08:07:26;5.90;;;3.77;;
9972;SDS011;5027;53.560;10.062;2023-03-23T08:10:01;5.87;;;3.67;;
9972;SDS011;5027;53.560;10.062;2023-03-23T08:12:51;5.03;;;3.57;;
9972;SDS011;5027;53.560;10.062;2023-03-23T08:15:37;4.17;;;3.43;;
9972;SDS011;5027;53.560;10.062;2023-03-23T08:18:03;4.80;;;3.93;;
9972;SDS011;5027;53.560;10.062;2023-03-23T08:20:48;5.13;;;3.47;;
9972;SDS011;5027;53.560;10.062;2023-03-23T08:23:32;3.73;;;3.07;;
9972;SDS011;5027;53.560;10.062;2023-03-23T08:26:18;5.23;;;3.83;;
9972;SDS011;5027;53.560;10.062;2023-03-23T08:29:04;4.13;;;3.70;;
9972;SDS011;5027;53.560;10.062;2023-03-23T08:31:52;5.73;;;4.20;;
9972;SDS011;5027;53.560;10.062;2023-03-23T08:34:29;5.50;;;3.40;;
9972;SDS011;5027;53.560;10.062;2023-03-23T08:37:06;5.00;;;3.77;;
9972;SDS011;5027;53.560;10.062;2023-03-23T08:39:54;5.20;;;3.73;;
9972;SDS011;5027;53.560;10.062;2023-03-23T08:42:47;6.40;;;2.70;;
9972;SDS011;5027;53.560;10.062;2023-03-23T08:45:34;3.27;;;2.00;;
9972;SDS011;5027;53.560;10.062;2023-03-23T08:48:03;4.97;;;1.90;;
9972;SDS011;5027;53.560;10.062;2023-03-23T08:50:31;4.20;;;2.10;;
9972;SDS011;5027;53.560;10.062;2023-03-23T08:53:03;3.03;;;2.53;;
9972;SDS011;5027;53.560;10.062;2023-03-23T08:55:40;5.07;;;3.00;;
9972;SDS011;5027;53.560;10.062;2023-03-23T08:58:25;4.13;;;3.60;;
9972;SDS011;5027;53.560;10.062;2023-03-23T09:01:07;5.30;;;4.13;;
9972;SDS011;5027;53.560;10.062;2023-03-23T09:03:42;8.03;;;7.33;;
9972;SDS011;5027;53.560;10.062;2023-03-23T09:06:31;9.43;;;3.90;;
9972;SDS011;5027;53.560;10.062;2023-03-23T09:08:58;7.80;;;3.57;;
9972;SDS011;5027;53.560;10.062;2023-03-23T09:11:25;5.27;;;3.03;;
9972;SDS011;5027;53.560;10.062;2023-03-23T09:13:51;6.27;;;3.20;;
9972;SDS011;5027;53.560;10.062;2023-03-23T09:16:17;7.37;;;3.10;;
9972;SDS011;5027;53.560;10.062;2023-03-23T09:18:43;9.87;;;3.27;;
9972;SDS011;5027;53.560;10.062;2023-03-23T09:21:09;7.13;;;2.67;;
9972;SDS011;5027;53.560;10.062;2023-03-23T09:23:34;6.50;;;2.80;;
9972;SDS011;5027;53.560;10.062;2023-03-23T09:26:01;7.00;;;2.70;;
9972;SDS011;5027;53.560;10.062;2023-03-23T09:28:27;5.37;;;2.20;;
9972;SDS011;5027;53.560;10.062;2023-03-23T09:30:57;9.73;;;2.93;;
9972;SDS011;5027;53.560;10.062;2023-03-23T09:33:24;9.40;;;2.50;;
9972;SDS011;5027;53.560;10.062;2023-03-23T09:35:51;7.30;;;2.87;;
9972;SDS011;5027;53.560;10.062;2023-03-23T09:38:17;9.97;;;3.07;;
9972;SDS011;5027;53.560;10.062;2023-03-23T09:43:29;7.03;;;2.77;;
9972;SDS011;5027;53.560;10.062;2023-03-23T09:48:55;8.13;;;2.97;;
9972;SDS011;5027;53.560;10.062;2023-03-23T09:51:37;7.97;;;2.37;;
9972;SDS011;5027;53.560;10.062;2023-03-23T09:54:29;10.43;;;3.20;;
9972;SDS011;5027;53.560;10.062;2023-03-23T09:57:01;9.40;;;3.07;;
9972;SDS011;5027;53.560;10.062;2023-03-23T09:59:34;9.40;;;3.20;;
9972;SDS011;5027;53.560;10.062;2023-03-23T10:02:15;9.23;;;3.17;;
9972;SDS011;5027;53.560;10.062;2023-03-23T10:04:47;11.37;;;3.50;;
9972;SDS011;5027;53.560;10.062;2023-03-23T10:07:15;12.50;;;3.60;;
9972;SDS011;5027;53.560;10.062;2023-03-23T10:09:44;9.07;;;3.33;;
9972;SDS011;5027;53.560;10.062;2023-03-23T10:12:15;7.60;;;3.30;;
9972;SDS011;5027;53.560;10.062;2023-03-23T10:23:02;9.30;;;3.53;;
9972;SDS011;5027;53.560;10.062;2023-03-23T10:25:48;7.93;;;3.30;;
9972;SDS011;5027;53.560;10.062;2023-03-23T10:28:37;6.40;;;2.47;;
9972;SDS011;5027;53.560;10.062;2023-03-23T10:31:09;6.77;;;3.00;;
9972;SDS011;5027;53.560;10.062;2023-03-23T10:33:45;11.93;;;3.80;;
9972;SDS011;5027;53.560;10.062;2023-03-23T10:41:23;9.70;;;3.10;;
9972;SDS011;5027;53.560;10.062;2023-03-23T10:43:49;10.20;;;3.67;;
9972;SDS011;5027;53.560;10.062;2023-03-23T10:46:25;11.93;;;3.63;;
9972;SDS011;5027;53.560;10.062;2023-03-23T10:49:01;14.73;;;3.60;;
9972;SDS011;5027;53.560;10.062;2023-03-23T10:51:34;8.00;;;3.00;;
9972;SDS011;5027;53.560;10.062;2023-03-23T10:54:02;13.47;;;4.20;;
9972;SDS011;5027;53.560;10.062;2023-03-23T10:56:43;13.30;;;4.13;;
9972;SDS011;5027;53.560;10.062;2023-03-23T10:59:20;9.83;;;3.23;;
9972;SDS011;5027;53.560;10.062;2023-03-23T11:01:52;9.37;;;3.40;;
9972;SDS011;5027;53.560;10.062;2023-03-23T11:04:20;11.97;;;3.27;;
9972;SDS011;5027;53.560;10.062;2023-03-23T11:06:49;3.47;;;2.13;;
9972;SDS011;5027;53.560;10.062;2023-03-23T11:09:19;8.77;;;3.80;;
9972;SDS011;5027;53.560;10.062;2023-03-23T11:11:54;14.17;;;3.90;;
9972;SDS011;5027;53.560;10.062;2023-03-23T11:16:53;10.73;;;4.10;;
9972;SDS011;5027;53.560;10.062;2023-03-23T11:19:30;11.80;;;3.43;;
9972;SDS011;5027;53.560;10.062;2023-03-23T11:22:05;10.97;;;3.77;;
9972;SDS011;5027;53.560;10.062;2023-03-23T11:24:33;11.90;;;3.77;;
9972;SDS011;5027;53.560;10.062;2023-03-23T11:27:01;10.97;;;3.87;;
9972;SDS011;5027;53.560;10.062;2023-03-23T11:29:32;9.97;;;3.97;;
9972;SDS011;5027;53.560;10.062;2023-03-23T11:34:25;9.53;;;3.90;;
9972;SDS011;5027;53.560;10.062;2023-03-23T11:37:03;13.10;;;4.13;;
9972;SDS011;5027;53.560;10.062;2023-03-23T11:42:22;12.90;;;3.97;;
9972;SDS011;5027;53.560;10.062;2023-03-23T11:44:54;9.70;;;3.77;;
9972;SDS011;5027;53.560;10.062;2023-03-23T11:47:36;6.80;;;2.90;;
9972;SDS011;5027;53.560;10.062;2023-03-23T11:50:27;10.27;;;3.60;;
9972;SDS011;5027;53.560;10.062;2023-03-23T11:53:09;11.63;;;4.30;;
9972;SDS011;5027;53.560;10.062;2023-03-23T11:58:12;12.13;;;4.30;;
9972;SDS011;5027;53.560;10.062;2023-03-23T12:00:55;11.13;;;3.87;;
9972;SDS011;5027;53.560;10.062;2023-03-23T12:03:22;11.23;;;4.00;;
9972;SDS011;5027;53.560;10.062;2023-03-23T12:06:27;8.73;;;3.90;;
9972;SDS011;5027;53.560;10.062;2023-03-23T12:09:22;10.70;;;3.97;;
9972;SDS011;5027;53.560;10.062;2023-03-23T12:26:06;9.37;;;4.10;;
9972;SDS011;5027;53.560;10.062;2023-03-23T12:36:56;10.30;;;3.53;;
9972;SDS011;5027;53.560;10.062;2023-03-23T12:48:36;8.23;;;3.50;;
9972;SDS011;5027;53.560;10.062;2023-03-23T12:53:54;9.13;;;3.60;;
9972;SDS011;5027;53.560;10.062;2023-03-23T12:59:00;9.47;;;4.43;;
9972;SDS011;5027;53.560;10.062;2023-03-23T13:01:48;12.87;;;4.13;;
9972;SDS011;5027;53.560;10.062;2023-03-23T13:04:19;10.67;;;3.87;;
9972;SDS011;5027;53.560;10.062;2023-03-23T13:06:48;15.87;;;4.40;;
9972;SDS011;5027;53.560;10.062;2023-03-23T13:09:16;11.60;;;4.07;;
9972;SDS011;5027;53.560;10.062;2023-03-23T13:11:54;10.60;;;4.30;;
9972;SDS011;5027;53.560;10.062;2023-03-23T13:19:26;12.00;;;4.03;;
9972;SDS011;5027;53.560;10.062;2023-03-23T13:22:13;10.23;;;3.80;;
9972;SDS011;5027;53.560;10.062;2023-03-23T13:24:52;10.93;;;3.20;;
9972;SDS011;5027;53.560;10.062;2023-03-23T13:27:24;11.00;;;4.10;;
9972;SDS011;5027;53.560;10.062;2023-03-23T13:29:53;8.37;;;3.73;;
9972;SDS011;5027;53.560;10.062;2023-03-23T13:32:21;7.20;;;3.20;;
9972;SDS011;5027;53.560;10.062;2023-03-23T13:34:53;6.23;;;3.43;;
9972;SDS011;5027;53.560;10.062;2023-03-23T13:37:23;8.97;;;3.70;;
9972;SDS011;5027;53.560;10.062;2023-03-23T13:42:26;10.37;;;3.40;;
9972;SDS011;5027;53.560;10.062;2023-03-23T13:45:19;6.00;;;3.00;;
9972;SDS011;5027;53.560;10.062;2023-03-23T13:48:04;6.87;;;3.00;;
9972;SDS011;5027;53.560;10.062;2023-03-23T13:50:44;7.60;;;2.90;;
9972;SDS011;5027;53.560;10.062;2023-03-23T13:53:22;7.53;;;2.90;;
9972;SDS011;5027;53.560;10.062;2023-03-23T13:58:47;7.20;;;2.53;;
9972;SDS011;5027;53.560;10.062;2023-03-23T14:01:34;6.83;;;2.83;;
9972;SDS011;5027;53.560;10.062;2023-03-23T14:04:07;7.13;;;2.70;;
9972;SDS011;5027;53.560;10.062;2023-03-23T14:06:43;5.57;;;2.70;;
9972;SDS011;5027;53.560;10.062;2023-03-23T14:09:16;7.47;;;2.73;;
9972;SDS011;5027;53.560;10.062;2023-03-23T14:11:55;8.30;;;2.67;;
9972;SDS011;5027;53.560;10.062;2023-03-23T14:14:29;8.60;;;2.60;;
9972;SDS011;5027;53.560;10.062;2023-03-23T14:17:26;6.60;;;2.23;;
9972;SDS011;5027;53.560;10.062;2023-03-23T14:19:57;12.57;;;2.80;;
9972;SDS011;5027;53.560;10.062;2023-03-23T14:22:37;4.67;;;1.83;;
9972;SDS011;5027;53.560;10.062;2023-03-23T14:27:38;5.70;;;2.30;;
9972;SDS011;5027;53.560;10.062;2023-03-23T14:30:08;2.93;;;1.83;;
9972;SDS011;5027;53.560;10.062;2023-03-23T14:32:39;4.80;;;1.87;;
9972;SDS011;5027;53.560;10.062;2023-03-23T14:37:53;6.10;;;2.57;;
9972;SDS011;5027;53.560;10.062;2023-03-23T14:40:20;3.63;;;2.07;;
9972;SDS011;5027;53.560;10.062;2023-03-23T14:42:46;3.03;;;1.90;;
9972;SDS011;5027;53.560;10.062;2023-03-23T14:45:16;2.60;;;2.07;;
9972;SDS011;5027;53.560;10.062;2023-03-23T14:47:54;5.77;;;2.13;;
9972;SDS011;5027;53.560;10.062;2023-03-23T14:52:58;6.00;;;2.33;;
9972;SDS011;5027;53.560;10.062;2023-03-23T14:55:27;4.57;;;2.03;;
9972;SDS011;5027;53.560;10.062;2023-03-23T14:57:56;5.03;;;2.27;;
9972;SDS011;5027;53.560;10.062;2023-03-23T15:00:35;5.00;;;2.50;;
9972;SDS011;5027;53.560;10.062;2023-03-23T15:03:06;5.43;;;2.30;;
9972;SDS011;5027;53.560;10.062;2023-03-23T15:05:38;4.67;;;2.20;;
9972;SDS011;5027;53.560;10.062;2023-03-23T15:08:11;6.87;;;2.57;;
9972;SDS011;5027;53.560;10.062;2023-03-23T15:10:56;6.13;;;2.23;;
9972;SDS011;5027;53.560;10.062;2023-03-23T15:13:30;4.13;;;2.47;;
9972;SDS011;5027;53.560;10.062;2023-03-23T15:16:01;4.83;;;2.57;;
9972;SDS011;5027;53.560;10.062;2023-03-23T15:18:38;5.67;;;2.30;;
9972;SDS011;5027;53.560;10.062;2023-03-23T15:21:10;5.33;;;2.57;;
9972;SDS011;5027;53.560;10.062;2023-03-23T15:23:44;3.97;;;2.20;;
9972;SDS011;5027;53.560;10.062;2023-03-23T15:26:15;4.50;;;2.30;;
9972;SDS011;5027;53.560;10.062;2023-03-23T15:29:15;6.97;;;2.30;;
9972;SDS011;5027;53.560;10.062;2023-03-23T15:31:47;4.37;;;2.27;;
9972;SDS011;5027;53.560;10.062;2023-03-23T15:34:27;4.40;;;2.33;;
9972;SDS011;5027;53.560;10.062;2023-03-23T15:37:03;4.67;;;2.20;;
9972;SDS011;5027;53.560;10.062;2023-03-23T15:39:31;6.73;;;3.00;;
9972;SDS011;5027;53.560;10.062;2023-03-23T15:41:58;4.30;;;2.60;;
9972;SDS011;5027;53.560;10.062;2023-03-23T15:44:26;5.37;;;2.53;;
9972;SDS011;5027;53.560;10.062;2023-03-23T15:47:10;5.00;;;2.67;;
9972;SDS011;5027;53.560;10.062;2023-03-23T15:49:43;5.83;;;2.13;;
9972;SDS011;5027;53.560;10.062;2023-03-23T15:52:10;7.20;;;3.03;;
9972;SDS011;5027;53.560;10.062;2023-03-23T15:54:37;3.97;;;2.40;;
9972;SDS011;5027;53.560;10.062;2023-03-23T15:57:04;4.20;;;2.43;;
9972;SDS011;5027;53.560;10.062;2023-03-23T15:59:30;6.37;;;2.50;;
9972;SDS011;5027;53.560;10.062;2023-03-23T16:01:56;6.50;;;2.93;;
9972;SDS011;5027;53.560;10.062;2023-03-23T16:04:23;5.73;;;2.40;;
9972;SDS011;5027;53.560;10.062;2023-03-23T16:06:51;5.17;;;2.33;;
9972;SDS011;5027;53.560;10.062;2023-03-23T16:09:21;8.53;;;2.40;;
9972;SDS011;5027;53.560;10.062;2023-03-23T16:11:47;7.23;;;2.77;;
9972;SDS011;5027;53.560;10.062;2023-03-23T16:14:14;4.90;;;2.33;;
9972;SDS011;5027;53.560;10.062;2023-03-23T16:16:43;6.60;;;2.00;;
9972;SDS011;5027;53.560;10.062;2023-03-23T16:19:16;5.53;;;2.57;;
9972;SDS011;5027;53.560;10.062;2023-03-23T16:21:45;8.27;;;2.50;;
9972;SDS011;5027;53.560;10.062;2023-03-23T16:24:12;6.67;;;2.07;;
9972;SDS011;5027;53.560;10.062;2023-03-23T16:26:38;4.20;;;2.27;;
9972;SDS011;5027;53.560;10.062;2023-03-23T16:29:10;6.03;;;2.80;;
9972;SDS011;5027;53.560;10.062;2023-03-23T16:31:58;6.00;;;3.00;;
9972;SDS011;5027;53.560;10.062;2023-03-23T16:34:25;8.27;;;3.13;;
9972;SDS011;5027;53.560;10.062;2023-03-23T16:36:53;6.73;;;3.20;;
9972;SDS011;5027;53.560;10.062;2023-03-23T16:39:21;3.23;;;1.90;;
9972;SDS011;5027;53.560;10.062;2023-03-23T16:41:48;7.30;;;3.27;;
9972;SDS011;5027;53.560;10.062;2023-03-23T16:44:15;6.57;;;3.07;;
9972;SDS011;5027;53.560;10.062;2023-03-23T16:46:42;7.63;;;2.70;;
9972;SDS011;5027;53.560;10.062;2023-03-23T16:49:08;8.43;;;2.77;;
9972;SDS011;5027;53.560;10.062;2023-03-23T16:51:35;7.03;;;2.67;;
9972;SDS011;5027;53.560;10.062;2023-03-23T16:54:02;7.80;;;2.60;;
9972;SDS011;5027;53.560;10.062;2023-03-23T16:56:29;9.07;;;2.77;;
9972;SDS011;5027;53.560;10.062;2023-03-23T16:58:56;5.10;;;2.37;;
9972;SDS011;5027;53.560;10.062;2023-03-23T17:01:22;7.73;;;2.83;;
9972;SDS011;5027;53.560;10.062;2023-03-23T17:03:49;4.30;;;2.50;;
9972;SDS011;5027;53.560;10.062;2023-03-23T17:06:16;6.30;;;2.80;;
9972;SDS011;5027;53.560;10.062;2023-03-23T17:08:43;6.63;;;2.53;;
9972;SDS011;5027;53.560;10.062;2023-03-23T17:11:09;8.33;;;2.60;;
9972;SDS011;5027;53.560;10.062;2023-03-23T17:13:36;6.03;;;2.57;;
9972;SDS011;5027;53.560;10.062;2023-03-23T17:16:03;5.70;;;2.40;;